sensor_id;sensor_type;location;lat;lon;timestamp;pressure;altitude;pressure_sealevel;temperature
20058;BMP180;10189;49.546;7.906;2023-04-30T00:01:10;98552.00;;;13.00
20058;BMP180;10189;49.546;7.906;2023-04-30T00:03:36;98539.00;;;13.00
20058;BMP180;10189;49.546;7.906;2023-04-30T00:06:02;98538.00;;;13.00
20058;BMP180;10189;49.546;7.906;2023-04-30T00:08:28;98526.00;;;13.00
20058;BMP180;10189;49.546;7.906;2023-04-30T00:10:54;98541.00;;;13.10
20058;BMP180;10189;49.546;7.906;2023-04-30T00:13:20;98546.00;;;13.00
20058;BMP180;10189;49.546;7.906;2023-04-30T00:15:46;98542.00;;;13.10
20058;BMP180;10189;49.546;7.906;2023-04-30T00:18:12;98542.00;;;13.00
20058;BMP180;10189;49.546;7.906;2023-04-30T00:20:38;98542.00;;;13.10
20058;BMP180;10189;49.546;7.906;2023-04-30T00:23:04;98543.00;;;13.00
20058;BMP180;10189;49.546;7.906;2023-04-30T00:25:29;98550.00;;;13.10
20058;BMP180;10189;49.546;7.906;2023-04-30T00:27:55;98543.00;;;13.10
20058;BMP180;10189;49.546;7.906;2023-04-30T00:30:21;98538.00;;;13.10
20058;BMP180;10189;49.546;7.906;2023-04-30T00:32:47;98539.00;;;13.00
20058;BMP180;10189;49.546;7.906;2023-04-30T00:35:13;98542.00;;;13.10
20058;BMP180;10189;49.546;7.906;2023-04-30T00:37:39;98541.00;;;13.10
20058;BMP180;10189;49.546;7.906;2023-04-30T00:40:06;98538.00;;;13.00
20058;BMP180;10189;49.546;7.906;2023-04-30T00:42:32;98539.00;;;13.00
20058;BMP180;10189;49.546;7.906;2023-04-30T00:44:58;98541.00;;;13.00
20058;BMP180;10189;49.546;7.906;2023-04-30T00:47:24;98540.00;;;13.00
20058;BMP180;10189;49.546;7.906;2023-04-30T00:49:50;98541.00;;;13.00
20058;BMP180;10189;49.546;7.906;2023-04-30T00:52:16;98550.00;;;13.00
20058;BMP180;10189;49.546;7.906;2023-04-30T00:54:42;98550.00;;;13.00
20058;BMP180;10189;49.546;7.906;2023-04-30T00:57:11;98543.00;;;13.00
20058;BMP180;10189;49.546;7.906;2023-04-30T00:59:38;98539.00;;;12.90
20058;BMP180;10189;49.546;7.906;2023-04-30T01:02:04;98543.00;;;12.80
20058;BMP180;10189;49.546;7.906;2023-04-30T01:04:30;98538.00;;;12.80
20058;BMP180;10189;49.546;7.906;2023-04-30T01:06:59;98539.00;;;12.90
20058;BMP180;10189;49.546;7.906;2023-04-30T01:09:27;98529.00;;;12.90
20058;BMP180;10189;49.546;7.906;2023-04-30T01:12:07;98527.00;;;12.90
20058;BMP180;10189;49.546;7.906;2023-04-30T01:17:31;98531.00;;;12.90
20058;BMP180;10189;49.546;7.906;2023-04-30T01:19:59;98537.00;;;12.80
20058;BMP180;10189;49.546;7.906;2023-04-30T01:25:30;98523.00;;;12.80
20058;BMP180;10189;49.546;7.906;2023-04-30T01:28:14;98526.00;;;12.80
20058;BMP180;10189;49.546;7.906;2023-04-30T01:30:42;98536.00;;;12.80
20058;BMP180;10189;49.546;7.906;2023-04-30T01:33:12;98518.00;;;12.80
20058;BMP180;10189;49.546;7.906;2023-04-30T01:39:05;98539.00;;;12.80
20058;BMP180;10189;49.546;7.906;2023-04-30T01:41:57;98525.00;;;12.80
20058;BMP180;10189;49.546;7.906;2023-04-30T01:44:42;98539.00;;;12.80
20058;BMP180;10189;49.546;7.906;2023-04-30T01:47:39;98531.00;;;12.80
20058;BMP180;10189;49.546;7.906;2023-04-30T01:50:37;98535.00;;;12.70
20058;BMP180;10189;49.546;7.906;2023-04-30T01:53:28;98534.00;;;12.80
20058;BMP180;10189;49.546;7.906;2023-04-30T01:56:09;98542.00;;;12.70
20058;BMP180;10189;49.546;7.906;2023-04-30T01:58:39;98536.00;;;12.70
20058;BMP180;10189;49.546;7.906;2023-04-30T02:01:05;98546.00;;;12.70
20058;BMP180;10189;49.546;7.906;2023-04-30T02:03:32;98551.00;;;12.80
20058;BMP180;10189;49.546;7.906;2023-04-30T02:05:58;98541.00;;;12.70
20058;BMP180;10189;49.546;7.906;2023-04-30T02:08:24;98546.00;;;12.80
20058;BMP180;10189;49.546;7.906;2023-04-30T02:10:50;98538.00;;;12.70
20058;BMP180;10189;49.546;7.906;2023-04-30T02:13:16;98536.00;;;12.80
20058;BMP180;10189;49.546;7.906;2023-04-30T02:15:42;98531.00;;;12.80
20058;BMP180;10189;49.546;7.906;2023-04-30T02:18:07;98534.00;;;12.70
20058;BMP180;10189;49.546;7.906;2023-04-30T02:20:33;98534.00;;;12.70
20058;BMP180;10189;49.546;7.906;2023-04-30T02:22:59;98523.00;;;12.70
20058;BMP180;10189;49.546;7.906;2023-04-30T02:25:25;98524.00;;;12.70
20058;BMP180;10189;49.546;7.906;2023-04-30T02:27:51;98531.00;;;12.60
20058;BMP180;10189;49.546;7.906;2023-04-30T02:30:17;98534.00;;;12.60
20058;BMP180;10189;49.546;7.906;2023-04-30T02:32:46;98538.00;;;12.60
20058;BMP180;10189;49.546;7.906;2023-04-30T02:35:12;98542.00;;;12.60
20058;BMP180;10189;49.546;7.906;2023-04-30T02:37:38;98539.00;;;12.60
20058;BMP180;10189;49.546;7.906;2023-04-30T02:40:05;98540.00;;;12.70
20058;BMP180;10189;49.546;7.906;2023-04-30T02:42:31;98555.00;;;12.60
20058;BMP180;10189;49.546;7.906;2023-04-30T02:44:57;98543.00;;;12.60
20058;BMP180;10189;49.546;7.906;2023-04-30T02:47:22;98543.00;;;12.60
20058;BMP180;10189;49.546;7.906;2023-04-30T02:49:48;98546.00;;;12.60
20058;BMP180;10189;49.546;7.906;2023-04-30T02:52:14;98545.00;;;12.60
20058;BMP180;10189;49.546;7.906;2023-04-30T02:54:40;98548.00;;;12.60
20058;BMP180;10189;49.546;7.906;2023-04-30T02:57:06;98551.00;;;12.50
20058;BMP180;10189;49.546;7.906;2023-04-30T02:59:32;98550.00;;;12.50
20058;BMP180;10189;49.546;7.906;2023-04-30T03:01:57;98550.00;;;12.50
20058;BMP180;10189;49.546;7.906;2023-04-30T03:04:23;98548.00;;;12.50
20058;BMP180;10189;49.546;7.906;2023-04-30T03:06:50;98550.00;;;12.50
20058;BMP180;10189;49.546;7.906;2023-04-30T03:09:16;98544.00;;;12.50
20058;BMP180;10189;49.546;7.906;2023-04-30T03:11:42;98536.00;;;12.40
20058;BMP180;10189;49.546;7.906;2023-04-30T03:14:08;98553.00;;;12.50
20058;BMP180;10189;49.546;7.906;2023-04-30T03:16:34;98540.00;;;12.40
20058;BMP180;10189;49.546;7.906;2023-04-30T03:19:00;98537.00;;;12.40
20058;BMP180;10189;49.546;7.906;2023-04-30T03:21:26;98542.00;;;12.40
20058;BMP180;10189;49.546;7.906;2023-04-30T03:23:52;98537.00;;;12.30
20058;BMP180;10189;49.546;7.906;2023-04-30T03:26:18;98528.00;;;12.30
20058;BMP180;10189;49.546;7.906;2023-04-30T03:28:44;98537.00;;;12.40
20058;BMP180;10189;49.546;7.906;2023-04-30T03:31:09;98535.00;;;12.40
20058;BMP180;10189;49.546;7.906;2023-04-30T03:33:35;98520.00;;;12.40
20058;BMP180;10189;49.546;7.906;2023-04-30T03:36:01;98528.00;;;12.40
20058;BMP180;10189;49.546;7.906;2023-04-30T03:38:27;98528.00;;;12.50
20058;BMP180;10189;49.546;7.906;2023-04-30T03:40:53;98525.00;;;12.40
20058;BMP180;10189;49.546;7.906;2023-04-30T03:43:19;98523.00;;;12.40
20058;BMP180;10189;49.546;7.906;2023-04-30T03:45:45;98523.00;;;12.40
20058;BMP180;10189;49.546;7.906;2023-04-30T03:48:11;98529.00;;;12.40
20058;BMP180;10189;49.546;7.906;2023-04-30T03:50:37;98530.00;;;12.40
20058;BMP180;10189;49.546;7.906;2023-04-30T03:53:03;98525.00;;;12.30
20058;BMP180;10189;49.546;7.906;2023-04-30T03:55:29;98526.00;;;12.30
20058;BMP180;10189;49.546;7.906;2023-04-30T03:57:55;98524.00;;;12.20
20058;BMP180;10189;49.546;7.906;2023-04-30T04:00:22;98531.00;;;12.20
20058;BMP180;10189;49.546;7.906;2023-04-30T04:02:51;98524.00;;;12.30
20058;BMP180;10189;49.546;7.906;2023-04-30T04:05:17;98536.00;;;12.30
20058;BMP180;10189;49.546;7.906;2023-04-30T04:07:44;98541.00;;;12.40
20058;BMP180;10189;49.546;7.906;2023-04-30T04:10:10;98539.00;;;12.30
20058;BMP180;10189;49.546;7.906;2023-04-30T04:12:36;98538.00;;;12.30
20058;BMP180;10189;49.546;7.906;2023-04-30T04:15:04;98546.00;;;12.40
20058;BMP180;10189;49.546;7.906;2023-04-30T04:17:30;98537.00;;;12.30
20058;BMP180;10189;49.546;7.906;2023-04-30T04:19:55;98530.00;;;12.20
20058;BMP180;10189;49.546;7.906;2023-04-30T04:22:21;98536.00;;;12.30
20058;BMP180;10189;49.546;7.906;2023-04-30T04:24:47;98539.00;;;12.30
20058;BMP180;10189;49.546;7.906;2023-04-30T04:27:18;98545.00;;;12.30
20058;BMP180;10189;49.546;7.906;2023-04-30T04:29:45;98548.00;;;12.20
20058;BMP180;10189;49.546;7.906;2023-04-30T04:32:11;98541.00;;;12.30
20058;BMP180;10189;49.546;7.906;2023-04-30T04:34:40;98541.00;;;12.20
20058;BMP180;10189;49.546;7.906;2023-04-30T04:37:07;98547.00;;;12.20
20058;BMP180;10189;49.546;7.906;2023-04-30T04:39:33;98545.00;;;12.20
20058;BMP180;10189;49.546;7.906;2023-04-30T04:42:01;98542.00;;;12.30
20058;BMP180;10189;49.546;7.906;2023-04-30T04:44:27;98540.00;;;12.20
20058;BMP180;10189;49.546;7.906;2023-04-30T04:46:53;98540.00;;;12.30
20058;BMP180;10189;49.546;7.906;2023-04-30T04:49:21;98546.00;;;12.40
20058;BMP180;10189;49.546;7.906;2023-04-30T04:51:47;98541.00;;;12.40
20058;BMP180;10189;49.546;7.906;2023-04-30T04:54:13;98542.00;;;12.40
20058;BMP180;10189;49.546;7.906;2023-04-30T04:56:40;98542.00;;;12.40
20058;BMP180;10189;49.546;7.906;2023-04-30T04:59:05;98535.00;;;12.40
20058;BMP180;10189;49.546;7.906;2023-04-30T05:01:32;98550.00;;;12.40
20058;BMP180;10189;49.546;7.906;2023-04-30T05:03:58;98534.00;;;12.40
20058;BMP180;10189;49.546;7.906;2023-04-30T05:06:24;98545.00;;;12.40
20058;BMP180;10189;49.546;7.906;2023-04-30T05:08:50;98543.00;;;12.40
20058;BMP180;10189;49.546;7.906;2023-04-30T05:11:16;98547.00;;;12.50
20058;BMP180;10189;49.546;7.906;2023-04-30T05:13:42;98541.00;;;12.50
20058;BMP180;10189;49.546;7.906;2023-04-30T05:16:07;98542.00;;;12.60
20058;BMP180;10189;49.546;7.906;2023-04-30T05:18:33;98540.00;;;12.50
20058;BMP180;10189;49.546;7.906;2023-04-30T05:20:59;98535.00;;;12.60
20058;BMP180;10189;49.546;7.906;2023-04-30T05:23:25;98527.00;;;12.60
20058;BMP180;10189;49.546;7.906;2023-04-30T05:25:52;98535.00;;;12.70
20058;BMP180;10189;49.546;7.906;2023-04-30T05:28:18;98531.00;;;12.70
20058;BMP180;10189;49.546;7.906;2023-04-30T05:30:44;98535.00;;;12.60
20058;BMP180;10189;49.546;7.906;2023-04-30T05:33:10;98540.00;;;12.90
20058;BMP180;10189;49.546;7.906;2023-04-30T05:35:36;98539.00;;;13.00
20058;BMP180;10189;49.546;7.906;2023-04-30T05:38:02;98536.00;;;13.00
20058;BMP180;10189;49.546;7.906;2023-04-30T05:40:28;98545.00;;;13.00
20058;BMP180;10189;49.546;7.906;2023-04-30T05:42:55;98546.00;;;13.10
20058;BMP180;10189;49.546;7.906;2023-04-30T05:45:21;98544.00;;;13.10
20058;BMP180;10189;49.546;7.906;2023-04-30T05:47:47;98553.00;;;13.00
20058;BMP180;10189;49.546;7.906;2023-04-30T05:50:12;98556.00;;;13.20
20058;BMP180;10189;49.546;7.906;2023-04-30T05:52:39;98550.00;;;13.20
20058;BMP180;10189;49.546;7.906;2023-04-30T05:55:05;98548.00;;;13.20
20058;BMP180;10189;49.546;7.906;2023-04-30T05:57:31;98542.00;;;13.20
20058;BMP180;10189;49.546;7.906;2023-04-30T05:59:57;98548.00;;;13.30
20058;BMP180;10189;49.546;7.906;2023-04-30T06:02:23;98546.00;;;13.20
20058;BMP180;10189;49.546;7.906;2023-04-30T06:04:49;98542.00;;;13.20
20058;BMP180;10189;49.546;7.906;2023-04-30T06:07:15;98548.00;;;13.20
20058;BMP180;10189;49.546;7.906;2023-04-30T06:09:41;98541.00;;;13.40
20058;BMP180;10189;49.546;7.906;2023-04-30T06:12:07;98539.00;;;13.60
20058;BMP180;10189;49.546;7.906;2023-04-30T06:14:34;98535.00;;;13.70
20058;BMP180;10189;49.546;7.906;2023-04-30T06:17:00;98536.00;;;13.60
20058;BMP180;10189;49.546;7.906;2023-04-30T06:19:26;98537.00;;;13.70
20058;BMP180;10189;49.546;7.906;2023-04-30T06:21:52;98545.00;;;13.90
20058;BMP180;10189;49.546;7.906;2023-04-30T06:24:18;98531.00;;;13.90
20058;BMP180;10189;49.546;7.906;2023-04-30T06:26:44;98526.00;;;14.10
20058;BMP180;10189;49.546;7.906;2023-04-30T06:29:09;98528.00;;;14.10
20058;BMP180;10189;49.546;7.906;2023-04-30T06:31:35;98528.00;;;14.30
20058;BMP180;10189;49.546;7.906;2023-04-30T06:34:01;98534.00;;;14.40
20058;BMP180;10189;49.546;7.906;2023-04-30T06:36:27;98531.00;;;14.20
20058;BMP180;10189;49.546;7.906;2023-04-30T06:38:53;98534.00;;;14.20
20058;BMP180;10189;49.546;7.906;2023-04-30T06:41:19;98525.00;;;14.60
20058;BMP180;10189;49.546;7.906;2023-04-30T06:43:45;98534.00;;;14.50
20058;BMP180;10189;49.546;7.906;2023-04-30T06:46:11;98534.00;;;14.50
20058;BMP180;10189;49.546;7.906;2023-04-30T06:48:37;98539.00;;;14.40
20058;BMP180;10189;49.546;7.906;2023-04-30T06:51:03;98531.00;;;14.30
20058;BMP180;10189;49.546;7.906;2023-04-30T06:53:28;98535.00;;;14.50
20058;BMP180;10189;49.546;7.906;2023-04-30T06:55:54;98530.00;;;14.60
20058;BMP180;10189;49.546;7.906;2023-04-30T06:58:21;98542.00;;;14.60
20058;BMP180;10189;49.546;7.906;2023-04-30T07:00:47;98544.00;;;14.80
20058;BMP180;10189;49.546;7.906;2023-04-30T07:03:12;98527.00;;;15.00
20058;BMP180;10189;49.546;7.906;2023-04-30T07:05:38;98525.00;;;15.00
20058;BMP180;10189;49.546;7.906;2023-04-30T07:08:05;98529.00;;;15.20
20058;BMP180;10189;49.546;7.906;2023-04-30T07:10:31;98542.00;;;15.10
20058;BMP180;10189;49.546;7.906;2023-04-30T07:12:57;98543.00;;;14.70
20058;BMP180;10189;49.546;7.906;2023-04-30T07:15:24;98543.00;;;14.60
20058;BMP180;10189;49.546;7.906;2023-04-30T07:17:50;98544.00;;;14.50
20058;BMP180;10189;49.546;7.906;2023-04-30T07:20:16;98537.00;;;14.50
20058;BMP180;10189;49.546;7.906;2023-04-30T07:22:42;98538.00;;;14.70
20058;BMP180;10189;49.546;7.906;2023-04-30T07:25:13;98541.00;;;14.50
20058;BMP180;10189;49.546;7.906;2023-04-30T07:27:39;98547.00;;;14.60
20058;BMP180;10189;49.546;7.906;2023-04-30T07:30:07;98539.00;;;14.80
20058;BMP180;10189;49.546;7.906;2023-04-30T07:32:35;98527.00;;;14.90
20058;BMP180;10189;49.546;7.906;2023-04-30T07:35:02;98537.00;;;14.90
20058;BMP180;10189;49.546;7.906;2023-04-30T07:37:28;98534.00;;;14.90
20058;BMP180;10189;49.546;7.906;2023-04-30T07:39:54;98537.00;;;15.00
20058;BMP180;10189;49.546;7.906;2023-04-30T07:42:21;98535.00;;;14.80
20058;BMP180;10189;49.546;7.906;2023-04-30T07:44:47;98544.00;;;14.80
20058;BMP180;10189;49.546;7.906;2023-04-30T07:47:14;98543.00;;;15.00
20058;BMP180;10189;49.546;7.906;2023-04-30T07:49:40;98536.00;;;15.40
20058;BMP180;10189;49.546;7.906;2023-04-30T07:52:06;98539.00;;;15.80
20058;BMP180;10189;49.546;7.906;2023-04-30T07:54:36;98537.00;;;15.90
20058;BMP180;10189;49.546;7.906;2023-04-30T07:57:04;98545.00;;;15.60
20058;BMP180;10189;49.546;7.906;2023-04-30T07:59:30;98541.00;;;15.60
20058;BMP180;10189;49.546;7.906;2023-04-30T08:01:57;98525.00;;;15.80
20058;BMP180;10189;49.546;7.906;2023-04-30T08:04:22;98546.00;;;15.80
20058;BMP180;10189;49.546;7.906;2023-04-30T08:06:48;98541.00;;;15.30
20058;BMP180;10189;49.546;7.906;2023-04-30T08:09:14;98541.00;;;15.70
20058;BMP180;10189;49.546;7.906;2023-04-30T08:11:41;98525.00;;;15.90
20058;BMP180;10189;49.546;7.906;2023-04-30T08:14:07;98518.00;;;16.20
20058;BMP180;10189;49.546;7.906;2023-04-30T08:16:33;98523.00;;;16.10
20058;BMP180;10189;49.546;7.906;2023-04-30T08:18:59;98535.00;;;16.00
20058;BMP180;10189;49.546;7.906;2023-04-30T08:21:25;98538.00;;;16.20
20058;BMP180;10189;49.546;7.906;2023-04-30T08:23:53;98534.00;;;16.00
20058;BMP180;10189;49.546;7.906;2023-04-30T08:26:19;98531.00;;;16.00
20058;BMP180;10189;49.546;7.906;2023-04-30T08:28:46;98535.00;;;16.30
20058;BMP180;10189;49.546;7.906;2023-04-30T08:31:12;98523.00;;;16.70
20058;BMP180;10189;49.546;7.906;2023-04-30T08:33:38;98531.00;;;16.70
20058;BMP180;10189;49.546;7.906;2023-04-30T08:36:05;98517.00;;;16.70
20058;BMP180;10189;49.546;7.906;2023-04-30T08:38:31;98515.00;;;16.80
20058;BMP180;10189;49.546;7.906;2023-04-30T08:41:14;98523.00;;;17.10
20058;BMP180;10189;49.546;7.906;2023-04-30T08:43:43;98525.00;;;16.80
20058;BMP180;10189;49.546;7.906;2023-04-30T08:46:11;98524.00;;;16.80
20058;BMP180;10189;49.546;7.906;2023-04-30T08:48:40;98520.00;;;16.60
20058;BMP180;10189;49.546;7.906;2023-04-30T08:51:06;98529.00;;;16.70
20058;BMP180;10189;49.546;7.906;2023-04-30T08:53:36;98531.00;;;16.50
20058;BMP180;10189;49.546;7.906;2023-04-30T08:56:05;98534.00;;;16.50
20058;BMP180;10189;49.546;7.906;2023-04-30T08:58:32;98524.00;;;16.70
20058;BMP180;10189;49.546;7.906;2023-04-30T09:00:58;98524.00;;;16.40
20058;BMP180;10189;49.546;7.906;2023-04-30T09:03:25;98528.00;;;16.50
20058;BMP180;10189;49.546;7.906;2023-04-30T09:05:54;98530.00;;;16.30
20058;BMP180;10189;49.546;7.906;2023-04-30T09:08:44;98518.00;;;16.60
20058;BMP180;10189;49.546;7.906;2023-04-30T09:11:26;98522.00;;;16.90
20058;BMP180;10189;49.546;7.906;2023-04-30T09:14:01;98526.00;;;16.80
20058;BMP180;10189;49.546;7.906;2023-04-30T09:19:29;98513.00;;;16.60
20058;BMP180;10189;49.546;7.906;2023-04-30T09:21:56;98525.00;;;16.70
20058;BMP180;10189;49.546;7.906;2023-04-30T09:24:23;98518.00;;;17.00
20058;BMP180;10189;49.546;7.906;2023-04-30T09:26:50;98521.00;;;17.00
20058;BMP180;10189;49.546;7.906;2023-04-30T09:29:16;98508.00;;;17.40
20058;BMP180;10189;49.546;7.906;2023-04-30T09:31:45;98512.00;;;17.50
20058;BMP180;10189;49.546;7.906;2023-04-30T09:34:12;98512.00;;;17.70
20058;BMP180;10189;49.546;7.906;2023-04-30T09:36:54;98488.00;;;18.10
20058;BMP180;10189;49.546;7.906;2023-04-30T09:39:21;98503.00;;;18.30
20058;BMP180;10189;49.546;7.906;2023-04-30T09:41:47;98505.00;;;18.10
20058;BMP180;10189;49.546;7.906;2023-04-30T09:44:28;98508.00;;;17.40
20058;BMP180;10189;49.546;7.906;2023-04-30T09:46:56;98490.00;;;17.90
20058;BMP180;10189;49.546;7.906;2023-04-30T09:49:23;98501.00;;;18.00
20058;BMP180;10189;49.546;7.906;2023-04-30T09:52:08;98511.00;;;17.70
20058;BMP180;10189;49.546;7.906;2023-04-30T09:54:35;98497.00;;;17.90
20058;BMP180;10189;49.546;7.906;2023-04-30T09:57:01;98504.00;;;17.90
20058;BMP180;10189;49.546;7.906;2023-04-30T09:59:33;98501.00;;;18.20
20058;BMP180;10189;49.546;7.906;2023-04-30T10:02:03;98519.00;;;18.10
20058;BMP180;10189;49.546;7.906;2023-04-30T10:04:38;98510.00;;;17.50
20058;BMP180;10189;49.546;7.906;2023-04-30T10:07:19;98504.00;;;17.80
20058;BMP180;10189;49.546;7.906;2023-04-30T10:10:09;98523.00;;;17.90
20058;BMP180;10189;49.546;7.906;2023-04-30T10:12:59;98512.00;;;17.50
20058;BMP180;10189;49.546;7.906;2023-04-30T10:15:36;98514.00;;;17.60
20058;BMP180;10189;49.546;7.906;2023-04-30T10:18:10;98513.00;;;17.90
20058;BMP180;10189;49.546;7.906;2023-04-30T10:20:37;98507.00;;;17.60
20058;BMP180;10189;49.546;7.906;2023-04-30T10:23:05;98503.00;;;17.70
20058;BMP180;10189;49.546;7.906;2023-04-30T10:25:32;98513.00;;;17.50
20058;BMP180;10189;49.546;7.906;2023-04-30T10:27:58;98515.00;;;17.40
20058;BMP180;10189;49.546;7.906;2023-04-30T10:30:25;98507.00;;;17.60
20058;BMP180;10189;49.546;7.906;2023-04-30T10:37:26;98497.00;;;18.40
20058;BMP180;10189;49.546;7.906;2023-04-30T10:39:21;98491.00;;;18.30
20058;BMP180;10189;49.546;7.906;2023-04-30T10:41:48;98487.00;;;18.80
20058;BMP180;10189;49.546;7.906;2023-04-30T10:44:24;98491.00;;;18.70
20058;BMP180;10189;49.546;7.906;2023-04-30T10:47:01;98490.00;;;18.30
20058;BMP180;10189;49.546;7.906;2023-04-30T10:49:28;98490.00;;;18.10
20058;BMP180;10189;49.546;7.906;2023-04-30T10:51:58;98474.00;;;18.40
20058;BMP180;10189;49.546;7.906;2023-04-30T10:54:30;98471.00;;;18.60
20058;BMP180;10189;49.546;7.906;2023-04-30T10:57:14;98481.00;;;18.10
20058;BMP180;10189;49.546;7.906;2023-04-30T10:59:50;98484.00;;;18.00
20058;BMP180;10189;49.546;7.906;2023-04-30T11:02:17;98464.00;;;18.00
20058;BMP180;10189;49.546;7.906;2023-04-30T11:05:16;98475.00;;;18.00
20058;BMP180;10189;49.546;7.906;2023-04-30T11:08:01;98472.00;;;18.40
20058;BMP180;10189;49.546;7.906;2023-04-30T11:10:31;98460.00;;;18.60
20058;BMP180;10189;49.546;7.906;2023-04-30T11:13:03;98472.00;;;19.00
20058;BMP180;10189;49.546;7.906;2023-04-30T11:15:40;98460.00;;;19.10
20058;BMP180;10189;49.546;7.906;2023-04-30T11:18:07;98465.00;;;18.60
20058;BMP180;10189;49.546;7.906;2023-04-30T11:20:48;98464.00;;;18.40
20058;BMP180;10189;49.546;7.906;2023-04-30T11:23:21;98461.00;;;18.60
20058;BMP180;10189;49.546;7.906;2023-04-30T11:25:48;98472.00;;;18.40
20058;BMP180;10189;49.546;7.906;2023-04-30T11:28:23;98472.00;;;18.30
20058;BMP180;10189;49.546;7.906;2023-04-30T11:30:57;98470.00;;;18.70
20058;BMP180;10189;49.546;7.906;2023-04-30T11:33:26;98456.00;;;18.60
20058;BMP180;10189;49.546;7.906;2023-04-30T11:35:58;98444.00;;;19.10
20058;BMP180;10189;49.546;7.906;2023-04-30T11:38:35;98443.00;;;18.90
20058;BMP180;10189;49.546;7.906;2023-04-30T11:41:03;98432.00;;;19.00
20058;BMP180;10189;49.546;7.906;2023-04-30T11:43:31;98437.00;;;19.40
20058;BMP180;10189;49.546;7.906;2023-04-30T11:46:11;98430.00;;;18.90
20058;BMP180;10189;49.546;7.906;2023-04-30T11:48:39;98438.00;;;18.50
20058;BMP180;10189;49.546;7.906;2023-04-30T11:51:22;98436.00;;;18.50
20058;BMP180;10189;49.546;7.906;2023-04-30T11:53:51;98445.00;;;18.30
20058;BMP180;10189;49.546;7.906;2023-04-30T11:56:23;98438.00;;;18.50
20058;BMP180;10189;49.546;7.906;2023-04-30T11:58:52;98431.00;;;18.50
20058;BMP180;10189;49.546;7.906;2023-04-30T12:01:19;98431.00;;;18.50
20058;BMP180;10189;49.546;7.906;2023-04-30T12:03:50;98415.00;;;18.90
20058;BMP180;10189;49.546;7.906;2023-04-30T12:06:26;98432.00;;;19.00
20058;BMP180;10189;49.546;7.906;2023-04-30T12:08:58;98435.00;;;19.20
20058;BMP180;10189;49.546;7.906;2023-04-30T12:11:27;98424.00;;;19.30
20058;BMP180;10189;49.546;7.906;2023-04-30T12:16:43;98420.00;;;19.20
20058;BMP180;10189;49.546;7.906;2023-04-30T12:19:20;98408.00;;;19.40
20058;BMP180;10189;49.546;7.906;2023-04-30T12:21:47;98420.00;;;19.90
20058;BMP180;10189;49.546;7.906;2023-04-30T12:24:18;98420.00;;;19.80
20058;BMP180;10189;49.546;7.906;2023-04-30T12:26:44;98412.00;;;19.60
20058;BMP180;10189;49.546;7.906;2023-04-30T12:29:16;98412.00;;;19.30
20058;BMP180;10189;49.546;7.906;2023-04-30T12:31:43;98407.00;;;19.30
20058;BMP180;10189;49.546;7.906;2023-04-30T12:34:13;98413.00;;;19.20
20058;BMP180;10189;49.546;7.906;2023-04-30T12:36:40;98414.00;;;19.20
20058;BMP180;10189;49.546;7.906;2023-04-30T12:39:12;98411.00;;;19.20
20058;BMP180;10189;49.546;7.906;2023-04-30T12:41:47;98407.00;;;19.10
20058;BMP180;10189;49.546;7.906;2023-04-30T12:44:26;98412.00;;;19.10
20058;BMP180;10189;49.546;7.906;2023-04-30T12:46:55;98395.00;;;19.00
20058;BMP180;10189;49.546;7.906;2023-04-30T12:49:26;98394.00;;;19.00
20058;BMP180;10189;49.546;7.906;2023-04-30T12:52:09;98388.00;;;19.50
20058;BMP180;10189;49.546;7.906;2023-04-30T12:54:36;98378.00;;;20.40
20058;BMP180;10189;49.546;7.906;2023-04-30T12:59:32;98374.00;;;20.50
20058;BMP180;10189;49.546;7.906;2023-04-30T13:02:12;98372.00;;;20.10
20058;BMP180;10189;49.546;7.906;2023-04-30T13:04:43;98379.00;;;20.30
20058;BMP180;10189;49.546;7.906;2023-04-30T13:07:09;98380.00;;;20.20
20058;BMP180;10189;49.546;7.906;2023-04-30T13:09:37;98369.00;;;20.00
20058;BMP180;10189;49.546;7.906;2023-04-30T13:12:03;98366.00;;;20.00
20058;BMP180;10189;49.546;7.906;2023-04-30T13:14:30;98372.00;;;19.90
20058;BMP180;10189;49.546;7.906;2023-04-30T13:16:56;98371.00;;;19.60
20058;BMP180;10189;49.546;7.906;2023-04-30T13:19:22;98377.00;;;19.60
20058;BMP180;10189;49.546;7.906;2023-04-30T13:21:48;98380.00;;;19.50
20058;BMP180;10189;49.546;7.906;2023-04-30T13:24:14;98357.00;;;19.70
20058;BMP180;10189;49.546;7.906;2023-04-30T13:26:42;98351.00;;;20.40
20058;BMP180;10189;49.546;7.906;2023-04-30T13:29:08;98348.00;;;19.90
20058;BMP180;10189;49.546;7.906;2023-04-30T13:31:34;98350.00;;;20.10
20058;BMP180;10189;49.546;7.906;2023-04-30T13:34:00;98357.00;;;20.50
20058;BMP180;10189;49.546;7.906;2023-04-30T13:36:26;98342.00;;;20.90
20058;BMP180;10189;49.546;7.906;2023-04-30T13:38:52;98336.00;;;20.70
20058;BMP180;10189;49.546;7.906;2023-04-30T13:41:18;98338.00;;;20.60
20058;BMP180;10189;49.546;7.906;2023-04-30T13:43:46;98338.00;;;20.90
20058;BMP180;10189;49.546;7.906;2023-04-30T13:46:12;98355.00;;;20.20
20058;BMP180;10189;49.546;7.906;2023-04-30T13:48:38;98355.00;;;20.10
20058;BMP180;10189;49.546;7.906;2023-04-30T13:51:04;98353.00;;;20.30
20058;BMP180;10189;49.546;7.906;2023-04-30T13:53:30;98357.00;;;20.20
20058;BMP180;10189;49.546;7.906;2023-04-30T13:55:56;98348.00;;;20.00
20058;BMP180;10189;49.546;7.906;2023-04-30T13:58:24;98338.00;;;20.10
20058;BMP180;10189;49.546;7.906;2023-04-30T14:00:50;98340.00;;;20.20
20058;BMP180;10189;49.546;7.906;2023-04-30T14:03:17;98340.00;;;19.90
20058;BMP180;10189;49.546;7.906;2023-04-30T14:05:43;98334.00;;;19.60
20058;BMP180;10189;49.546;7.906;2023-04-30T14:08:09;98323.00;;;20.20
20058;BMP180;10189;49.546;7.906;2023-04-30T14:10:35;98325.00;;;20.00
20058;BMP180;10189;49.546;7.906;2023-04-30T14:13:02;98324.00;;;20.00
20058;BMP180;10189;49.546;7.906;2023-04-30T14:15:29;98313.00;;;20.40
20058;BMP180;10189;49.546;7.906;2023-04-30T14:17:57;98320.00;;;20.70
20058;BMP180;10189;49.546;7.906;2023-04-30T14:20:25;98313.00;;;20.50
20058;BMP180;10189;49.546;7.906;2023-04-30T14:22:51;98314.00;;;20.60
20058;BMP180;10189;49.546;7.906;2023-04-30T14:25:17;98316.00;;;20.30
20058;BMP180;10189;49.546;7.906;2023-04-30T14:27:43;98320.00;;;20.10
20058;BMP180;10189;49.546;7.906;2023-04-30T14:30:10;98317.00;;;20.00
20058;BMP180;10189;49.546;7.906;2023-04-30T14:32:36;98317.00;;;20.20
20058;BMP180;10189;49.546;7.906;2023-04-30T14:35:02;98311.00;;;20.20
20058;BMP180;10189;49.546;7.906;2023-04-30T14:37:29;98301.00;;;20.40